Time;durP1;ratioP1;P1;durP2;ratioP2;P2;SDS_P1;SDS_P2;PMS_P1;PMS_P2;Temp;Humidity;BMP_temperature;BMP_pressure;BME280_temperature;BME280_humidity;BME280_pressure;Samples;Min_cycle;Max_cycle;Signal;HPM_P1;HPM_P2
2023/08/26 00:01:31;;;;;;;16.70;11.23;;;18.60;99.90;;;;;;5053444;28;20028;-85
2023/08/26 00:03:57;;;;;;;14.88;10.52;;;18.70;99.90;;;;;;5059593;28;20622;-85
2023/08/26 00:06:22;;;;;;;16.38;10.32;;;18.70;99.90;;;;;;5085192;28;20096;-85
2023/08/26 00:08:51;;;;;;;20.80;11.77;;;18.60;99.90;;;;;;5058996;28;20028;-86
2023/08/26 00:11:17;;;;;;;18.65;12.20;;;18.60;99.90;;;;;;5085264;28;20032;-85
2023/08/26 00:13:42;;;;;;;16.65;12.30;;;18.60;99.90;;;;;;5060143;28;20392;-85
2023/08/26 00:16:08;;;;;;;18.70;11.73;;;18.60;99.90;;;;;;5084125;28;20053;-86
2023/08/26 00:18:34;;;;;;;18.60;12.00;;;18.50;99.90;;;;;;5068347;28;20032;-85
2023/08/26 00:21:00;;;;;;;17.33;13.25;;;18.50;99.90;;;;;;5086461;28;20107;-85
2023/08/26 00:23:26;;;;;;;22.98;13.95;;;18.50;99.90;;;;;;5060595;28;20390;-86
2023/08/26 00:25:52;;;;;;;17.05;13.73;;;18.50;99.90;;;;;;5061903;28;20016;-85
2023/08/26 00:28:17;;;;;;;22.20;13.23;;;18.50;99.90;;;;;;5077738;28;20447;-84
2023/08/26 00:30:44;;;;;;;22.23;13.57;;;18.50;99.90;;;;;;5063834;28;20149;-84
2023/08/26 00:33:09;;;;;;;19.55;13.38;;;18.50;99.90;;;;;;5059301;28;20169;-84
2023/08/26 00:35:38;;;;;;;20.80;13.88;;;18.50;99.90;;;;;;5071405;28;20034;-84
2023/08/26 00:38:04;;;;;;;20.95;15.82;;;18.50;99.90;;;;;;5056408;28;20093;-85
2023/08/26 00:40:35;;;;;;;31.92;16.63;;;18.50;99.90;;;;;;5059401;28;20036;-84
2023/08/26 00:43:08;;;;;;;28.25;19.05;;;18.40;99.90;;;;;;5067394;28;20384;-85
2023/08/26 00:45:34;;;;;;;46.35;22.40;;;18.40;99.90;;;;;;5059304;28;20143;-85
2023/08/26 00:48:00;;;;;;;64.30;24.23;;;18.40;99.90;;;;;;5047786;28;20593;-84
2023/08/26 00:50:26;;;;;;;57.22;21.50;;;18.40;99.90;;;;;;5048831;28;20036;-83
2023/08/26 00:52:53;;;;;;;15.05;8.48;;;18.40;99.90;;;;;;5063977;28;20039;-83
2023/08/26 00:55:20;;;;;;;18.60;8.02;;;18.30;99.90;;;;;;5078218;28;20031;-84
2023/08/26 00:57:46;;;;;;;6.25;4.30;;;18.20;99.90;;;;;;5076717;28;20566;-84
2023/08/26 01:00:12;;;;;;;4.65;3.55;;;18.00;99.90;;;;;;5080859;28;20055;-84
2023/08/26 01:02:38;;;;;;;5.30;4.00;;;17.70;99.90;;;;;;5059115;28;20479;-84
2023/08/26 01:05:05;;;;;;;9.98;4.75;;;17.50;99.90;;;;;;5066692;28;20024;-84
2023/08/26 01:07:31;;;;;;;3.55;3.17;;;17.40;99.90;;;;;;5071863;28;20118;-84
2023/08/26 01:09:57;;;;;;;6.40;4.18;;;17.20;99.90;;;;;;5074162;28;21133;-84
2023/08/26 01:12:39;;;;;;;6.32;4.45;;;17.20;99.90;;;;;;5056432;28;20032;-84
2023/08/26 01:15:12;;;;;;;12.73;5.28;;;17.20;99.90;;;;;;5084814;28;20028;-84
2023/08/26 01:17:38;;;;;;;7.78;4.80;;;17.20;99.90;;;;;;5055795;28;20048;-84
2023/08/26 01:20:05;;;;;;;9.05;5.07;;;17.20;99.90;;;;;;5091881;28;20398;-84
2023/08/26 01:22:34;;;;;;;12.02;5.30;;;17.20;99.90;;;;;;5058751;28;20659;-84
2023/08/26 01:25:01;;;;;;;10.25;5.57;;;17.20;99.90;;;;;;5070786;28;20038;-84
2023/08/26 01:27:28;;;;;;;12.15;6.35;;;17.20;99.90;;;;;;5076265;28;20055;-85
2023/08/26 01:29:56;;;;;;;11.85;7.10;;;17.20;99.90;;;;;;5070660;28;20556;-84
2023/08/26 01:32:48;;;;;;;12.50;6.43;;;17.20;99.90;;;;;;5067549;28;20086;-84
2023/08/26 01:35:21;;;;;;;9.75;6.15;;;17.30;99.90;;;;;;5069699;28;20028;-84
2023/08/26 01:37:48;;;;;;;10.32;6.35;;;17.30;99.90;;;;;;5057128;28;20483;-85
2023/08/26 01:40:16;;;;;;;12.02;7.53;;;17.30;99.90;;;;;;5063870;28;20047;-84
2023/08/26 01:42:43;;;;;;;17.75;7.85;;;17.30;99.90;;;;;;5059011;28;20027;-84
2023/08/26 01:45:11;;;;;;;11.40;7.32;;;17.30;99.90;;;;;;5065097;28;20026;-85
2023/08/26 01:47:38;;;;;;;14.35;8.90;;;17.40;99.90;;;;;;5080702;28;20130;-84
2023/08/26 01:50:04;;;;;;;24.63;13.73;;;17.50;99.90;;;;;;5063469;28;20543;-84
2023/08/26 01:52:29;;;;;;;34.25;17.92;;;17.50;99.90;;;;;;5061240;28;20038;-84
2023/08/26 01:54:55;;;;;;;35.42;19.17;;;17.60;99.90;;;;;;5066024;28;20027;-84
2023/08/26 01:57:22;;;;;;;56.80;26.88;;;17.60;99.90;;;;;;5065251;28;20027;-84
2023/08/26 01:59:47;;;;;;;58.20;29.27;;;17.60;99.90;;;;;;5061829;28;20041;-84
2023/08/26 02:02:14;;;;;;;93.13;38.95;;;17.70;99.90;;;;;;5066514;28;20047;-84
2023/08/26 02:04:40;;;;;;;81.60;38.50;;;17.80;99.90;;;;;;5080981;28;20054;-84
2023/08/26 02:07:24;;;;;;;84.00;41.22;;;17.70;99.90;;;;;;5081054;28;20024;-84
2023/08/26 02:09:50;;;;;;;89.18;41.25;;;17.80;99.90;;;;;;5061552;28;20098;-84
2023/08/26 02:12:15;;;;;;;97.60;42.95;;;17.80;99.90;;;;;;5076495;28;20105;-84
2023/08/26 02:14:41;;;;;;;86.28;44.85;;;17.90;99.90;;;;;;5063041;28;20028;-84
2023/08/26 02:17:07;;;;;;;93.47;46.10;;;17.80;99.90;;;;;;5077674;28;20497;-84
2023/08/26 02:19:35;;;;;;;96.85;48.00;;;17.80;99.90;;;;;;5063939;28;20040;-84
2023/08/26 02:22:01;;;;;;;93.85;47.88;;;17.80;99.90;;;;;;5079548;28;20020;-84
2023/08/26 02:24:27;;;;;;;87.82;43.50;;;17.80;99.90;;;;;;5066381;28;20032;-84
2023/08/26 02:26:53;;;;;;;86.15;45.10;;;17.70;99.90;;;;;;5065828;28;20107;-83
2023/08/26 02:29:18;;;;;;;93.55;45.45;;;17.70;99.90;;;;;;5058636;28;20501;-84
2023/08/26 02:31:44;;;;;;;88.30;44.58;;;17.70;99.90;;;;;;5068428;28;20069;-84
2023/08/26 02:34:10;;;;;;;86.40;43.28;;;17.70;99.90;;;;;;5063663;28;20062;-84
2023/08/26 02:36:36;;;;;;;90.53;44.55;;;17.60;99.90;;;;;;5062647;28;20035;-84
2023/08/26 02:39:02;;;;;;;83.20;42.22;;;17.60;99.90;;;;;;5060693;28;20032;-84
2023/08/26 02:41:29;;;;;;;80.22;44.25;;;17.60;99.90;;;;;;5064838;28;20121;-84
2023/08/26 02:43:54;;;;;;;89.78;44.10;;;17.50;99.90;;;;;;5065420;28;20074;-84
2023/08/26 02:46:20;;;;;;;91.43;43.50;;;17.50;99.90;;;;;;5070624;28;20036;-84
2023/08/26 02:48:47;;;;;;;81.93;42.08;;;17.50;99.90;;;;;;5064220;28;20036;-83
2023/08/26 02:51:13;;;;;;;88.55;45.92;;;17.50;99.90;;;;;;5081139;28;20035;-84
2023/08/26 02:53:38;;;;;;;88.40;44.53;;;17.50;99.90;;;;;;5068517;28;20028;-84
2023/08/26 02:56:04;;;;;;;82.22;44.42;;;17.50;99.90;;;;;;5066764;28;20059;-83
2023/08/26 02:58:30;;;;;;;78.88;44.08;;;17.50;99.90;;;;;;5068699;28;20032;-84
2023/08/26 03:01:00;;;;;;;91.07;47.33;;;17.50;99.90;;;;;;5066571;28;20039;-84
2023/08/26 03:03:26;;;;;;;89.05;46.20;;;17.50;99.90;;;;;;5062466;28;20438;-84
2023/08/26 03:05:56;;;;;;;84.30;43.95;;;17.50;99.90;;;;;;5070814;28;20015;-84
2023/08/26 03:08:21;;;;;;;86.05;44.72;;;17.50;99.90;;;;;;5079542;28;20020;-84
2023/08/26 03:11:03;;;;;;;87.03;45.10;;;17.50;99.90;;;;;;5071569;28;20091;-84
2023/08/26 03:13:29;;;;;;;86.70;45.97;;;17.50;99.90;;;;;;5082778;28;20039;-84
2023/08/26 03:15:56;;;;;;;90.47;47.95;;;17.40;99.90;;;;;;5063926;28;20391;-84
2023/08/26 03:18:21;;;;;;;89.30;47.67;;;17.40;99.90;;;;;;5084121;28;20028;-84
2023/08/26 03:20:47;;;;;;;95.13;48.25;;;17.50;99.90;;;;;;5065612;28;20513;-84
2023/08/26 03:23:13;;;;;;;94.05;46.28;;;17.40;99.90;;;;;;5084996;28;20019;-84
2023/08/26 03:25:41;;;;;;;90.47;46.83;;;17.40;99.90;;;;;;5068122;28;20399;-84
2023/08/26 03:28:08;;;;;;;93.28;48.55;;;17.50;99.90;;;;;;5084162;28;20023;-84
2023/08/26 03:30:36;;;;;;;101.47;49.63;;;17.50;99.90;;;;;;5064158;28;20063;-84
2023/08/26 03:33:03;;;;;;;101.70;48.97;;;17.50;99.90;;;;;;5069048;28;20024;-84
2023/08/26 03:35:29;;;;;;;97.07;47.50;;;17.50;99.90;;;;;;5065366;28;20871;-84
2023/08/26 03:37:55;;;;;;;85.68;46.90;;;17.50;99.90;;;;;;5063513;28;20038;-84
2023/08/26 03:40:22;;;;;;;87.40;46.28;;;17.50;99.90;;;;;;5066221;28;20683;-84
2023/08/26 03:42:50;;;;;;;81.32;44.55;;;17.40;99.90;;;;;;5065797;28;20110;-84
2023/08/26 03:45:16;;;;;;;92.78;47.92;;;17.40;99.90;;;;;;5067989;28;20019;-84
2023/08/26 03:47:42;;;;;;;93.90;48.30;;;17.40;99.90;;;;;;5067923;28;20016;-83
2023/08/26 03:50:08;;;;;;;94.03;47.63;;;17.30;99.90;;;;;;5061618;28;20034;-83
2023/08/26 03:52:34;;;;;;;90.38;47.42;;;17.20;99.90;;;;;;5063817;28;20024;-84
2023/08/26 03:55:01;;;;;;;83.75;44.17;;;17.20;99.90;;;;;;5063143;28;20043;-84
2023/08/26 03:57:27;;;;;;;84.35;45.85;;;17.10;99.90;;;;;;5069311;28;20042;-84
2023/08/26 03:59:52;;;;;;;84.78;46.58;;;17.10;99.90;;;;;;5065512;28;20020;-83
2023/08/26 04:02:18;;;;;;;89.43;46.03;;;17.00;99.90;;;;;;5066501;28;20020;-83
2023/08/26 04:04:44;;;;;;;93.75;48.67;;;17.00;99.90;;;;;;5064169;28;20024;-84
2023/08/26 04:07:10;;;;;;;94.07;48.78;;;17.00;99.90;;;;;;5086349;28;20081;-84
2023/08/26 04:09:36;;;;;;;87.03;47.47;;;17.00;99.90;;;;;;5065801;28;20032;-84
2023/08/26 04:12:02;;;;;;;89.88;46.30;;;17.00;99.90;;;;;;5064052;28;20367;-84
2023/08/26 04:14:28;;;;;;;85.78;45.42;;;17.00;99.90;;;;;;5066319;28;20793;-84
2023/08/26 04:16:54;;;;;;;72.05;42.90;;;17.00;99.90;;;;;;5083158;28;20043;-83
2023/08/26 04:19:20;;;;;;;80.45;45.85;;;16.90;99.90;;;;;;5076381;28;20032;-84
2023/08/26 04:21:46;;;;;;;79.13;44.80;;;16.90;99.90;;;;;;5084343;28;20024;-84
2023/08/26 04:24:12;;;;;;;81.88;43.45;;;16.90;99.90;;;;;;5061912;28;20020;-84
2023/08/26 04:26:39;;;;;;;87.75;43.10;;;16.90;99.90;;;;;;5085708;28;20474;-84
2023/08/26 04:29:05;;;;;;;75.45;41.95;;;16.80;99.90;;;;;;5063086;28;20024;-84
2023/08/26 04:31:31;;;;;;;74.47;41.80;;;16.70;99.90;;;;;;5064833;28;20028;-83
2023/08/26 04:33:57;;;;;;;72.40;42.25;;;16.70;99.90;;;;;;5073786;28;20028;-86
2023/08/26 04:36:23;;;;;;;77.80;40.35;;;16.70;99.90;;;;;;5067600;28;20116;-85
2023/08/26 04:38:48;;;;;;;74.95;42.28;;;16.60;99.90;;;;;;5064405;28;20055;-85
2023/08/26 04:41:14;;;;;;;70.35;40.38;;;16.60;99.90;;;;;;5068383;28;20085;-85
2023/08/26 04:43:40;;;;;;;69.57;39.35;;;16.60;99.90;;;;;;5065223;28;20028;-86
2023/08/26 04:46:06;;;;;;;68.03;39.30;;;16.50;99.90;;;;;;5063753;28;20023;-86
2023/08/26 04:48:33;;;;;;;74.38;41.17;;;16.60;99.90;;;;;;5066209;28;20119;-85
2023/08/26 04:50:59;;;;;;;81.88;41.60;;;16.50;99.90;;;;;;5065129;28;20031;-85
2023/08/26 04:53:25;;;;;;;64.97;37.72;;;16.50;99.90;;;;;;5063341;28;20092;-86
2023/08/26 04:55:51;;;;;;;75.45;39.63;;;16.40;99.90;;;;;;5083362;28;20036;-85
2023/08/26 04:58:17;;;;;;;73.53;38.58;;;16.40;99.90;;;;;;5077352;28;20036;-86
2023/08/26 05:00:44;;;;;;;67.13;36.53;;;16.30;99.90;;;;;;5060942;28;20017;-85
2023/08/26 05:03:10;;;;;;;81.47;40.35;;;16.30;99.90;;;;;;5059048;28;20752;-86
2023/08/26 05:05:39;;;;;;;79.35;37.00;;;16.20;99.90;;;;;;5064759;28;20027;-85
2023/08/26 05:08:05;;;;;;;77.65;39.78;;;16.20;99.90;;;;;;5062558;28;20062;-85
2023/08/26 05:10:31;;;;;;;64.75;38.15;;;16.20;99.90;;;;;;5067417;28;20032;-85
2023/08/26 05:12:56;;;;;;;81.28;39.70;;;16.10;99.90;;;;;;5063525;28;20460;-85
2023/08/26 05:15:22;;;;;;;71.50;38.33;;;16.20;99.90;;;;;;5069094;28;20383;-85
2023/08/26 05:17:48;;;;;;;73.45;38.33;;;16.20;99.90;;;;;;5065128;28;20032;-85
2023/08/26 05:20:14;;;;;;;78.50;38.60;;;16.20;99.90;;;;;;5080602;28;20034;-86
2023/08/26 05:22:41;;;;;;;67.57;38.60;;;16.20;99.90;;;;;;5065693;28;20101;-86
2023/08/26 05:25:08;;;;;;;60.10;34.83;;;16.20;99.90;;;;;;5082444;28;20049;-85
2023/08/26 05:27:34;;;;;;;69.05;36.22;;;16.20;99.90;;;;;;5058817;28;20088;-85
2023/08/26 05:30:00;;;;;;;53.78;35.30;;;16.30;99.90;;;;;;5085207;28;20043;-85
2023/08/26 05:32:27;;;;;;;64.57;36.35;;;16.40;99.90;;;;;;5060433;28;20146;-85
2023/08/26 05:34:53;;;;;;;61.97;35.53;;;16.40;99.90;;;;;;5069589;28;20132;-85
2023/08/26 05:37:18;;;;;;;66.50;38.17;;;16.40;99.90;;;;;;5062756;28;20042;-85
2023/08/26 05:39:44;;;;;;;61.92;34.78;;;16.40;99.90;;;;;;5076767;28;20028;-86
2023/08/26 05:42:10;;;;;;;63.95;35.47;;;16.40;99.90;;;;;;5062367;28;20395;-85
2023/08/26 05:44:37;;;;;;;71.22;36.15;;;16.40;99.90;;;;;;5067946;28;20031;-85
2023/08/26 05:47:03;;;;;;;59.47;33.97;;;16.60;99.90;;;;;;5081386;28;20387;-85
2023/08/26 05:49:30;;;;;;;53.47;31.48;;;16.70;99.90;;;;;;5058653;28;20027;-84
2023/08/26 05:51:55;;;;;;;47.20;28.52;;;16.70;99.90;;;;;;5065490;28;20024;-85
2023/08/26 05:54:21;;;;;;;47.38;28.73;;;16.70;99.90;;;;;;5063745;28;20024;-85
2023/08/26 05:56:47;;;;;;;38.55;25.38;;;16.70;99.90;;;;;;5063507;28;20077;-86
2023/08/26 05:59:12;;;;;;;42.03;24.90;;;16.60;99.90;;;;;;5065200;28;20016;-85
2023/08/26 06:01:39;;;;;;;35.00;22.55;;;16.60;99.90;;;;;;5066786;28;20031;-86
2023/08/26 06:04:06;;;;;;;38.28;24.23;;;16.60;99.90;;;;;;5067664;28;20864;-85
2023/08/26 06:06:32;;;;;;;29.83;20.33;;;16.60;99.90;;;;;;5076985;28;20030;-85
2023/08/26 06:08:57;;;;;;;33.15;20.67;;;16.80;99.90;;;;;;5069460;28;20114;-85
2023/08/26 06:11:24;;;;;;;31.33;19.80;;;16.90;99.90;;;;;;5061931;28;20083;-85
2023/08/26 06:13:50;;;;;;;30.67;18.00;;;17.00;99.90;;;;;;5064626;28;20028;-85
2023/08/26 06:16:19;;;;;;;28.52;16.88;;;17.20;99.90;;;;;;5061670;28;20051;-86
2023/08/26 06:18:48;;;;;;;27.00;15.88;;;17.10;99.90;;;;;;5074182;28;20024;-86
2023/08/26 06:21:14;;;;;;;30.70;15.75;;;17.10;99.90;;;;;;5067466;28;20047;-85
2023/08/26 06:23:40;;;;;;;24.80;14.77;;;17.20;99.90;;;;;;5089006;28;20149;-85
2023/08/26 06:26:06;;;;;;;32.45;15.52;;;17.20;99.90;;;;;;5068477;28;20071;-86
2023/08/26 06:28:32;;;;;;;25.40;13.82;;;17.20;99.90;;;;;;5082971;28;20032;-85
2023/08/26 06:30:59;;;;;;;21.10;15.48;;;17.20;99.90;;;;;;5069045;28;20110;-85
2023/08/26 06:33:29;;;;;;;26.17;14.48;;;17.10;99.90;;;;;;5068621;28;20086;-86
2023/08/26 06:35:54;;;;;;;20.23;13.02;;;17.20;99.90;;;;;;5088345;28;20249;-85
2023/08/26 06:38:22;;;;;;;21.73;12.73;;;17.30;99.90;;;;;;5086615;28;20074;-85
2023/08/26 06:40:56;;;;;;;21.15;12.48;;;17.40;99.90;;;;;;5060480;28;20438;-85
2023/08/26 06:43:22;;;;;;;17.52;12.57;;;17.50;99.90;;;;;;5077645;28;20032;-87
2023/08/26 06:45:48;;;;;;;17.27;12.32;;;17.50;99.90;;;;;;5065299;28;20028;-87
2023/08/26 06:48:14;;;;;;;22.08;12.50;;;17.40;99.90;;;;;;5058995;28;20027;-87
2023/08/26 06:50:40;;;;;;;20.23;13.45;;;17.20;99.90;;;;;;5062417;28;20368;-87
2023/08/26 06:53:08;;;;;;;19.20;13.68;;;17.10;99.90;;;;;;5078779;28;20390;-88
2023/08/26 06:55:35;;;;;;;26.15;13.55;;;17.10;99.90;;;;;;5079654;28;20760;-86
2023/08/26 06:58:01;;;;;;;24.10;13.48;;;17.20;99.90;;;;;;5067653;28;20031;-87
2023/08/26 07:00:27;;;;;;;17.17;11.85;;;17.30;99.90;;;;;;5077947;28;20024;-87
2023/08/26 07:02:53;;;;;;;19.30;13.32;;;17.40;99.90;;;;;;5063784;28;20024;-86
2023/08/26 07:05:19;;;;;;;21.17;11.55;;;17.60;99.90;;;;;;5078137;28;20459;-87
2023/08/26 07:07:45;;;;;;;20.83;10.27;;;17.80;99.90;;;;;;5065468;28;20118;-87
2023/08/26 07:10:11;;;;;;;16.70;9.20;;;18.00;99.90;;;;;;5060465;28;20028;-87
2023/08/26 07:12:37;;;;;;;14.90;8.68;;;18.00;99.90;;;;;;5066478;28;20032;-87
2023/08/26 07:15:03;;;;;;;15.95;9.55;;;17.70;99.90;;;;;;5068154;28;20390;-87
2023/08/26 07:17:28;;;;;;;13.20;9.48;;;17.50;99.90;;;;;;5062093;28;20127;-87
2023/08/26 07:19:54;;;;;;;14.20;9.80;;;17.40;99.90;;;;;;5076408;28;20114;-87
2023/08/26 07:22:20;;;;;;;16.92;9.73;;;17.40;99.90;;;;;;5073588;28;20126;-88
2023/08/26 07:24:46;;;;;;;19.38;9.15;;;17.50;99.90;;;;;;5089523;28;20019;-87
2023/08/26 07:27:12;;;;;;;16.70;9.82;;;17.50;99.90;;;;;;5060180;28;20707;-86
2023/08/26 07:29:38;;;;;;;16.58;9.80;;;17.70;99.90;;;;;;5075273;28;20112;-87
2023/08/26 07:32:04;;;;;;;14.07;9.30;;;18.00;99.90;;;;;;5075398;28;20028;-86
2023/08/26 07:34:30;;;;;;;16.35;9.82;;;18.00;99.90;;;;;;5082869;28;20036;-87
2023/08/26 07:36:57;;;;;;;14.10;9.10;;;18.30;99.90;;;;;;5081679;28;20441;-88
2023/08/26 07:39:24;;;;;;;19.23;9.40;;;18.40;99.90;;;;;;5076337;28;20379;-86
2023/08/26 07:41:50;;;;;;;13.70;9.50;;;18.60;99.90;;;;;;5062199;28;20036;-87
2023/08/26 07:44:16;;;;;;;18.40;9.00;;;18.80;99.90;;;;;;5060293;28;20024;-87
2023/08/26 07:46:41;;;;;;;16.77;7.45;;;19.00;99.90;;;;;;5062766;28;20024;-87
2023/08/26 07:49:07;;;;;;;14.82;7.32;;;18.80;99.90;;;;;;5100082;28;21003;-88
2023/08/26 07:51:33;;;;;;;12.05;6.82;;;18.90;99.90;;;;;;5061663;28;20101;-88
2023/08/26 07:53:58;;;;;;;12.93;6.47;;;19.10;99.90;;;;;;5078026;28;20028;-87
2023/08/26 07:56:24;;;;;;;13.88;7.13;;;19.10;99.90;;;;;;5063797;28;20035;-87
2023/08/26 07:58:50;;;;;;;15.85;6.20;;;19.20;99.90;;;;;;5060250;28;20050;-88
2023/08/26 08:01:16;;;;;;;13.90;6.38;;;19.30;99.90;;;;;;5076915;28;20483;-88
2023/08/26 08:03:42;;;;;;;15.00;6.35;;;19.50;99.90;;;;;;5048737;28;20046;-88
2023/08/26 08:06:08;;;;;;;14.30;7.13;;;19.50;99.90;;;;;;5076930;28;20115;-87
2023/08/26 08:08:33;;;;;;;14.80;7.22;;;19.20;99.90;;;;;;5060101;28;20111;-88
2023/08/26 08:10:59;;;;;;;8.10;5.55;;;18.90;99.90;;;;;;5081989;28;20056;-87
2023/08/26 08:13:26;;;;;;;8.60;5.40;;;18.90;99.90;;;;;;5065644;28;20035;-88
2023/08/26 08:15:51;;;;;;;9.90;5.10;;;19.00;99.90;;;;;;5070733;28;20027;-88
2023/08/26 08:18:17;;;;;;;11.68;5.57;;;19.00;99.90;;;;;;5056127;28;20034;-88
2023/08/26 08:20:43;;;;;;;7.65;5.13;;;19.10;99.90;;;;;;5074479;28;20384;-88
2023/08/26 08:23:08;;;;;;;13.43;4.53;;;19.30;99.90;;;;;;5082203;28;20386;-86
2023/08/26 08:25:34;;;;;;;10.75;4.50;;;19.20;99.90;;;;;;5086288;28;20107;-87
2023/08/26 08:28:02;;;;;;;8.43;5.20;;;19.30;99.90;;;;;;5066744;28;20035;-87
2023/08/26 08:30:28;;;;;;;8.75;4.55;;;19.20;99.90;;;;;;5061842;28;20211;-87
2023/08/26 08:32:53;;;;;;;11.15;4.57;;;19.30;99.90;;;;;;5084432;28;20027;-87
2023/08/26 08:35:19;;;;;;;7.65;4.35;;;19.40;99.90;;;;;;5084176;28;20059;-88
2023/08/26 08:37:45;;;;;;;15.48;5.30;;;19.00;99.90;;;;;;5076172;28;20032;-88
2023/08/26 08:40:11;;;;;;;17.48;5.55;;;18.80;99.90;;;;;;5085167;28;20500;-88
2023/08/26 08:42:41;;;;;;;15.52;6.38;;;18.60;99.90;;;;;;5062590;28;20070;-87
2023/08/26 08:45:07;;;;;;;12.10;5.35;;;18.60;99.90;;;;;;5070752;28;20020;-87
2023/08/26 08:47:34;;;;;;;11.85;5.30;;;19.00;99.90;;;;;;5064795;28;20028;-87
2023/08/26 08:50:00;;;;;;;10.88;4.20;;;19.50;99.90;;;;;;5067073;28;20028;-87
2023/08/26 08:52:26;;;;;;;9.55;4.70;;;20.00;99.90;;;;;;5063993;28;20031;-87
2023/08/26 08:54:52;;;;;;;9.13;4.32;;;20.30;99.90;;;;;;5084458;28;20479;-88
2023/08/26 08:57:23;;;;;;;7.78;4.82;;;20.30;99.90;;;;;;5064043;28;20020;-87
2023/08/26 08:59:49;;;;;;;9.93;4.32;;;20.40;99.90;;;;;;5076559;28;20649;-87
2023/08/26 09:02:15;;;;;;;8.10;4.00;;;20.50;99.90;;;;;;5078258;28;20114;-87
2023/08/26 09:04:44;;;;;;;9.27;3.45;;;21.30;99.90;;;;;;5077326;28;20028;-88
2023/08/26 09:07:13;;;;;;;11.88;3.78;;;22.40;99.90;;;;;;5067828;28;20024;-88
2023/08/26 09:09:38;;;;;;;8.77;3.30;;;23.70;99.90;;;;;;5062839;28;20019;-88
2023/08/26 09:12:06;;;;;;;6.05;3.67;;;24.50;99.90;;;;;;5086131;28;20024;-86
2023/08/26 09:14:32;;;;;;;7.28;3.55;;;23.80;99.90;;;;;;5064292;28;20043;-88
2023/08/26 09:17:00;;;;;;;7.13;3.75;;;23.30;99.90;;;;;;5081852;28;20032;-87
2023/08/26 09:19:26;;;;;;;7.07;3.33;;;22.50;99.90;;;;;;5066844;28;20460;-87
2023/08/26 09:21:53;;;;;;;6.90;3.42;;;22.00;99.90;;;;;;5086893;28;20028;-87
2023/08/26 09:24:21;;;;;;;5.65;3.67;;;21.20;99.90;;;;;;5081793;28;20038;-87
2023/08/26 09:27:05;;;;;;;9.05;3.28;;;20.70;99.90;;;;;;5079630;28;20024;-86
2023/08/26 09:29:31;;;;;;;5.55;3.28;;;20.60;99.90;;;;;;5068250;28;20047;-87
2023/08/26 09:31:58;;;;;;;7.30;3.00;;;20.20;99.90;;;;;;5081636;28;20107;-87
2023/08/26 09:34:32;;;;;;;9.70;2.85;;;20.00;99.90;;;;;;5063157;28;20041;-87
2023/08/26 09:36:59;;;;;;;7.00;2.90;;;19.90;99.90;;;;;;5067041;28;20123;-87
2023/08/26 09:39:26;;;;;;;8.20;2.95;;;19.80;99.90;;;;;;5102173;28;20028;-86
2023/08/26 09:41:54;;;;;;;10.05;2.83;;;19.80;99.90;;;;;;5068309;28;20107;-87
2023/08/26 09:44:23;;;;;;;3.83;2.60;;;19.50;99.90;;;;;;5085736;28;20028;-87
2023/08/26 09:46:49;;;;;;;20.50;3.28;;;19.10;99.90;;;;;;5064174;28;20024;-87
2023/08/26 09:49:17;;;;;;;11.38;2.95;;;18.90;99.90;;;;;;5078628;28;20024;-87
2023/08/26 09:51:52;;;;;;;8.70;3.33;;;18.70;99.90;;;;;;5062336;28;20028;-87
2023/08/26 09:54:21;;;;;;;4.65;2.88;;;18.70;99.90;;;;;;5077680;28;20142;-87
2023/08/26 09:56:48;;;;;;;9.40;3.10;;;18.60;99.90;;;;;;5067394;28;20043;-87
2023/08/26 09:59:14;;;;;;;6.05;3.15;;;18.40;99.90;;;;;;5083319;28;20111;-87
2023/08/26 10:01:42;;;;;;;7.05;3.45;;;18.30;99.90;;;;;;5060074;28;20184;-87
2023/08/26 10:04:21;;;;;;;4.32;2.38;;;18.40;99.90;;;;;;5081238;28;20034;-86
2023/08/26 10:06:53;;;;;;;4.15;2.70;;;19.00;99.90;;;;;;5086608;28;20042;-89
2023/08/26 10:09:35;;;;;;;4.70;2.85;;;19.60;99.90;;;;;;5056175;28;20112;-86
2023/08/26 10:12:05;;;;;;;7.30;3.03;;;20.40;99.90;;;;;;5079122;28;20613;-88
2023/08/26 10:14:33;;;;;;;5.43;2.30;;;20.70;99.90;;;;;;5082807;28;20031;-87
2023/08/26 10:17:06;;;;;;;8.55;3.05;;;21.00;99.90;;;;;;5059996;28;20051;-87
2023/08/26 10:19:32;;;;;;;9.07;2.85;;;20.90;99.90;;;;;;5085564;28;20028;-87
2023/08/26 10:21:59;;;;;;;8.38;3.38;;;20.60;99.90;;;;;;5062672;28;20047;-86
2023/08/26 10:24:25;;;;;;;9.95;3.90;;;20.60;99.90;;;;;;5057967;28;20031;-87
2023/08/26 10:26:51;;;;;;;5.63;2.95;;;20.80;99.90;;;;;;5075389;28;20078;-87
2023/08/26 10:29:17;;;;;;;9.48;2.60;;;21.40;99.90;;;;;;5090209;28;20029;-88
2023/08/26 10:31:45;;;;;;;10.57;3.05;;;22.20;99.90;;;;;;5081900;28;20127;-87
2023/08/26 10:34:11;;;;;;;4.43;2.63;;;22.40;99.90;;;;;;5079483;28;20039;-87
2023/08/26 10:36:38;;;;;;;11.35;3.60;;;22.70;99.90;;;;;;5076509;28;20028;-88
2023/08/26 10:39:14;;;;;;;13.63;3.72;;;22.50;99.90;;;;;;5069097;28;20053;-87
2023/08/26 10:41:40;;;;;;;4.88;2.88;;;22.20;99.90;;;;;;5064789;28;20391;-88
2023/08/26 10:44:05;;;;;;;10.32;3.58;;;22.10;99.90;;;;;;5066154;28;20035;-87
2023/08/26 10:46:32;;;;;;;6.32;3.22;;;21.80;99.90;;;;;;5064399;28;20080;-87
2023/08/26 10:49:02;;;;;;;11.25;3.38;;;21.60;99.90;;;;;;5070105;28;20680;-87
2023/08/26 10:51:35;;;;;;;10.15;2.92;;;21.60;99.90;;;;;;5064947;28;20067;-87
2023/08/26 10:54:02;;;;;;;4.45;2.65;;;21.80;99.90;;;;;;5087853;28;20035;-88
2023/08/26 10:56:29;;;;;;;7.75;3.17;;;21.90;99.90;;;;;;5082891;28;20153;-87
2023/08/26 10:59:01;;;;;;;5.80;2.55;;;21.80;99.90;;;;;;5065126;28;20028;-87
2023/08/26 11:01:28;;;;;;;6.60;2.90;;;22.00;99.90;;;;;;5079791;28;20033;-87
2023/08/26 11:03:54;;;;;;;5.35;2.70;;;21.90;99.90;;;;;;5070106;28;20058;-89
2023/08/26 11:06:22;;;;;;;14.52;3.40;;;21.90;99.90;;;;;;5068287;28;20051;-87
2023/08/26 11:08:55;;;;;;;5.50;3.15;;;21.80;99.90;;;;;;5073454;28;20836;-88
2023/08/26 11:11:20;;;;;;;4.85;3.20;;;21.50;99.90;;;;;;5084367;28;20031;-87
2023/08/26 11:13:47;;;;;;;6.80;3.10;;;21.50;99.90;;;;;;5066526;28;20027;-88
2023/08/26 11:16:14;;;;;;;10.85;2.90;;;21.30;99.90;;;;;;5085713;28;20054;-86
2023/08/26 11:18:40;;;;;;;6.90;2.70;;;21.20;99.90;;;;;;5067910;28;20118;-87
2023/08/26 11:21:07;;;;;;;8.40;2.90;;;20.80;99.90;;;;;;5104571;28;20024;-87
2023/08/26 11:23:33;;;;;;;5.05;2.70;;;20.40;99.90;;;;;;5070353;28;20055;-87
2023/08/26 11:25:59;;;;;;;7.75;2.53;;;20.10;99.90;;;;;;5096804;28;20114;-89
2023/08/26 11:28:28;;;;;;;4.93;2.63;;;19.90;99.90;;;;;;5071803;28;20343;-87
2023/08/26 11:30:54;;;;;;;5.22;2.10;;;19.80;99.90;;;;;;5099687;28;20024;-88
2023/08/26 11:33:22;;;;;;;7.07;2.03;;;19.80;99.90;;;;;;5083353;28;20035;-87
2023/08/26 11:35:49;;;;;;;6.38;2.78;;;19.80;99.90;;;;;;5063603;28;20063;-87
2023/08/26 11:38:16;;;;;;;7.75;2.42;;;19.70;99.90;;;;;;5084465;28;20074;-86
2023/08/26 11:40:42;;;;;;;6.18;2.35;;;19.60;99.90;;;;;;5061767;28;20715;-86
2023/08/26 11:43:12;;;;;;;4.72;1.77;;;19.40;99.90;;;;;;5072545;28;20464;-87
2023/08/26 11:45:42;;;;;;;7.40;2.40;;;19.40;99.90;;;;;;5058091;28;20841;-87
2023/08/26 11:48:12;;;;;;;3.20;2.00;;;19.50;99.90;;;;;;5078156;28;20078;-88
2023/08/26 11:50:39;;;;;;;3.65;2.00;;;19.30;99.90;;;;;;5071996;28;20040;-87
2023/08/26 11:53:05;;;;;;;8.05;2.10;;;19.00;99.90;;;;;;5078332;28;20033;-87
2023/08/26 11:55:33;;;;;;;4.65;2.00;;;18.50;99.90;;;;;;5057178;28;20498;-88
2023/08/26 11:58:00;;;;;;;7.85;2.20;;;18.20;99.90;;;;;;5058240;28;20356;-87
2023/08/26 12:00:26;;;;;;;3.58;2.00;;;18.00;99.90;;;;;;5062711;28;20450;-88
2023/08/26 12:02:54;;;;;;;7.75;2.03;;;17.70;99.90;;;;;;5060523;28;20399;-87
2023/08/26 12:05:20;;;;;;;5.75;2.20;;;17.30;99.90;;;;;;5082670;28;20051;-86
2023/08/26 12:07:47;;;;;;;11.85;2.70;;;17.10;99.90;;;;;;5087913;28;20051;-86
2023/08/26 12:10:15;;;;;;;5.60;2.38;;;16.30;99.90;;;;;;5080952;28;20027;-86
2023/08/26 12:12:41;;;;;;;3.88;2.45;;;15.80;99.90;;;;;;5065083;28;20358;-86
2023/08/26 12:15:09;;;;;;;3.55;2.28;;;15.30;99.90;;;;;;5063648;28;20082;-87
2023/08/26 12:17:47;;;;;;;5.53;2.58;;;14.90;99.90;;;;;;5065190;28;20028;-86
2023/08/26 12:20:20;;;;;;;3.08;2.60;;;14.70;99.90;;;;;;5074999;28;20024;-87
2023/08/26 12:22:47;;;;;;;5.95;2.83;;;14.50;99.90;;;;;;5103556;28;20506;-87
2023/08/26 12:25:25;;;;;;;3.88;3.08;;;14.40;99.90;;;;;;5060011;28;20022;-87
2023/08/26 12:27:51;;;;;;;9.48;3.88;;;14.40;99.90;;;;;;5085536;28;20139;-89
2023/08/26 12:30:17;;;;;;;9.63;3.63;;;14.40;99.90;;;;;;5061741;28;20032;-88
2023/08/26 12:32:42;;;;;;;7.70;3.78;;;14.30;99.90;;;;;;5081402;28;20040;-87
2023/08/26 12:35:08;;;;;;;5.35;3.65;;;14.10;99.90;;;;;;5060413;28;20124;-87